Time;durP1;ratioP1;P1;durP2;ratioP2;P2;SDS_P1;SDS_P2;PMS_P1;PMS_P2;Temp;Humidity;BMP_temperature;BMP_pressure;BME280_temperature;BME280_humidity;BME280_pressure;Samples;Min_cycle;Max_cycle;Signal;HPM_P1;HPM_P2
2021/11/18 00:00:26;;;;;;;4.30;1.75;;;7.80;99.90;;;;;;5073027;28;20065;-74
2021/11/18 00:02:53;;;;;;;3.38;2.35;;;7.80;99.90;;;;;;5070713;28;20077;-73
2021/11/18 00:05:21;;;;;;;4.68;2.35;;;7.80;99.90;;;;;;5073124;28;20020;-73
2021/11/18 00:07:50;;;;;;;4.15;2.05;;;7.80;99.90;;;;;;5073641;28;20024;-73
2021/11/18 00:10:19;;;;;;;5.32;2.53;;;7.80;99.90;;;;;;5072952;28;20054;-73
2021/11/18 00:12:45;;;;;;;3.20;2.05;;;7.80;99.90;;;;;;5073258;28;20027;-73
2021/11/18 00:15:13;;;;;;;4.05;2.38;;;7.80;99.90;;;;;;5091456;28;20021;-74
2021/11/18 00:17:39;;;;;;;3.88;2.00;;;7.80;99.90;;;;;;5090799;28;20063;-75
2021/11/18 00:20:09;;;;;;;4.65;2.53;;;7.80;99.90;;;;;;5072859;28;20037;-74
2021/11/18 00:22:35;;;;;;;6.35;2.35;;;7.80;99.90;;;;;;5072389;28;20024;-73
2021/11/18 00:25:00;;;;;;;5.90;2.35;;;7.80;99.90;;;;;;5073553;28;20020;-73
2021/11/18 00:27:27;;;;;;;6.35;3.17;;;7.80;99.90;;;;;;5090981;28;20021;-73
2021/11/18 00:29:53;;;;;;;3.97;2.30;;;7.80;99.90;;;;;;5073153;28;20024;-74
2021/11/18 00:32:19;;;;;;;4.05;2.20;;;7.80;99.90;;;;;;5090658;28;20030;-73
2021/11/18 00:34:44;;;;;;;6.05;2.72;;;7.80;99.90;;;;;;5073069;28;20450;-74
2021/11/18 00:37:10;;;;;;;5.07;2.22;;;7.80;99.90;;;;;;5081187;28;20026;-72
2021/11/18 00:39:36;;;;;;;4.97;2.33;;;7.80;99.90;;;;;;5090652;28;20062;-74
2021/11/18 00:42:01;;;;;;;5.47;2.70;;;7.80;99.90;;;;;;5073087;28;20471;-74
2021/11/18 00:44:27;;;;;;;4.05;2.53;;;7.80;99.90;;;;;;5061492;28;20024;-73
2021/11/18 00:46:54;;;;;;;5.60;2.70;;;7.80;99.90;;;;;;5090805;28;20055;-78
2021/11/18 00:49:21;;;;;;;5.25;2.70;;;7.80;99.90;;;;;;5073149;28;20431;-75
2021/11/18 00:51:47;;;;;;;5.65;2.58;;;7.80;99.90;;;;;;5073532;28;20372;-73
2021/11/18 00:54:13;;;;;;;5.28;2.60;;;7.80;99.90;;;;;;5072925;28;20027;-76
2021/11/18 00:56:39;;;;;;;6.40;2.80;;;7.80;99.90;;;;;;5091479;28;20020;-73
2021/11/18 00:59:05;;;;;;;6.97;3.28;;;7.80;99.90;;;;;;5074015;28;20568;-74
2021/11/18 01:01:40;;;;;;;5.00;2.90;;;7.80;99.90;;;;;;5076642;28;20063;-77
2021/11/18 01:04:06;;;;;;;7.05;3.60;;;7.80;99.90;;;;;;5095441;28;20040;-75
2021/11/18 01:06:31;;;;;;;5.57;3.28;;;7.80;99.90;;;;;;5095129;28;20095;-75
2021/11/18 01:08:57;;;;;;;5.57;2.85;;;7.80;99.90;;;;;;5077138;28;20433;-75
2021/11/18 01:11:26;;;;;;;8.07;3.95;;;7.80;99.90;;;;;;5094482;28;20043;-75
2021/11/18 01:13:52;;;;;;;10.80;3.30;;;7.80;99.90;;;;;;5095050;28;20051;-74
2021/11/18 01:16:22;;;;;;;7.50;3.13;;;7.80;99.90;;;;;;5077203;28;20020;-76
2021/11/18 01:18:48;;;;;;;5.93;3.72;;;7.90;99.90;;;;;;5077067;28;20074;-76
2021/11/18 01:21:15;;;;;;;9.05;3.50;;;7.90;99.90;;;;;;5095428;28;20024;-78
2021/11/18 01:23:41;;;;;;;5.60;3.47;;;7.90;99.90;;;;;;5061055;28;20016;-77
2021/11/18 01:26:10;;;;;;;7.78;3.80;;;7.80;99.90;;;;;;5089593;28;20383;-74
2021/11/18 01:28:35;;;;;;;7.43;3.72;;;7.90;99.90;;;;;;5076605;28;20020;-75
2021/11/18 01:31:02;;;;;;;7.10;3.28;;;7.90;99.90;;;;;;5095057;28;20498;-75
2021/11/18 01:33:28;;;;;;;6.65;3.25;;;7.90;99.90;;;;;;5093974;28;20024;-76
2021/11/18 01:35:55;;;;;;;6.53;3.50;;;7.90;99.90;;;;;;5077024;28;20136;-74
2021/11/18 01:38:21;;;;;;;7.63;3.53;;;8.00;99.90;;;;;;5094642;28;20020;-76
2021/11/18 01:40:50;;;;;;;7.05;3.80;;;8.00;99.90;;;;;;5094508;28;20051;-74
2021/11/18 01:43:19;;;;;;;6.95;4.10;;;8.00;99.90;;;;;;5075580;28;20023;-75
2021/11/18 01:45:45;;;;;;;5.88;3.53;;;8.00;99.90;;;;;;5095683;28;20039;-74
2021/11/18 01:48:10;;;;;;;8.68;3.50;;;8.00;99.90;;;;;;5094607;28;20024;-73
2021/11/18 01:50:38;;;;;;;6.18;3.28;;;8.00;99.90;;;;;;5094963;28;20012;-73
2021/11/18 01:53:12;;;;;;;7.53;3.80;;;8.00;99.90;;;;;;5093912;28;20016;-74
2021/11/18 01:55:40;;;;;;;8.23;3.63;;;8.00;99.90;;;;;;5093845;28;20016;-74
2021/11/18 01:58:06;;;;;;;7.82;3.75;;;7.90;99.90;;;;;;5094027;28;20031;-74
2021/11/18 02:00:37;;;;;;;7.82;3.95;;;7.90;99.90;;;;;;5075266;28;20019;-73
2021/11/18 02:03:03;;;;;;;9.52;3.95;;;7.90;99.90;;;;;;5075993;28;20137;-74
2021/11/18 02:05:38;;;;;;;8.60;3.58;;;7.90;99.90;;;;;;5075454;28;20115;-73
2021/11/18 02:08:07;;;;;;;6.47;3.83;;;7.90;99.90;;;;;;5075689;28;20028;-73
2021/11/18 02:10:37;;;;;;;5.97;3.33;;;7.90;99.90;;;;;;5074296;28;20031;-74
2021/11/18 02:13:05;;;;;;;8.48;3.90;;;8.00;99.90;;;;;;5076161;28;20047;-73
2021/11/18 02:15:44;;;;;;;8.70;4.10;;;8.00;99.90;;;;;;5075776;28;20024;-73
2021/11/18 02:18:17;;;;;;;9.07;4.03;;;7.90;99.90;;;;;;5076323;28;20020;-73
2021/11/18 02:20:43;;;;;;;6.90;3.40;;;7.90;99.90;;;;;;5076155;28;20449;-73
2021/11/18 02:23:15;;;;;;;6.68;3.90;;;7.90;99.90;;;;;;5093972;28;20346;-73
2021/11/18 02:25:41;;;;;;;6.65;3.75;;;7.90;99.90;;;;;;5076195;28;20044;-73
2021/11/18 02:28:07;;;;;;;6.85;4.15;;;7.90;99.90;;;;;;5093774;28;20063;-74
2021/11/18 02:30:38;;;;;;;7.97;4.10;;;7.90;99.90;;;;;;5075012;28;20020;-73
2021/11/18 02:33:04;;;;;;;8.25;3.80;;;7.90;99.90;;;;;;5075869;28;20031;-74
2021/11/18 02:35:32;;;;;;;5.65;3.35;;;7.90;99.90;;;;;;5075377;28;20024;-74
2021/11/18 02:37:58;;;;;;;7.07;3.90;;;8.00;99.90;;;;;;5075537;28;20023;-73
2021/11/18 02:40:26;;;;;;;7.03;3.83;;;7.90;99.90;;;;;;5093461;28;20028;-74
2021/11/18 02:42:53;;;;;;;9.80;4.20;;;7.90;99.90;;;;;;5075638;28;20024;-74
2021/11/18 02:45:23;;;;;;;6.78;4.10;;;7.90;99.90;;;;;;5093404;28;20031;-74
2021/11/18 02:47:49;;;;;;;10.98;4.10;;;7.90;99.90;;;;;;5093914;28;20020;-74
2021/11/18 02:50:19;;;;;;;8.52;3.95;;;7.90;99.90;;;;;;5075562;28;20051;-74
2021/11/18 02:52:46;;;;;;;5.38;3.40;;;7.90;99.90;;;;;;5075504;28;20024;-74
2021/11/18 02:55:18;;;;;;;9.43;4.80;;;7.90;99.90;;;;;;5093350;28;20091;-73
2021/11/18 02:57:44;;;;;;;9.23;4.30;;;7.90;99.90;;;;;;5093341;28;20040;-73
2021/11/18 03:00:14;;;;;;;7.80;4.40;;;7.90;99.90;;;;;;5093288;28;20027;-73
2021/11/18 03:02:40;;;;;;;9.50;4.20;;;7.90;99.90;;;;;;5092946;28;20119;-74
2021/11/18 03:05:07;;;;;;;7.35;4.45;;;7.90;99.90;;;;;;5093480;28;20107;-73
2021/11/18 03:07:33;;;;;;;6.78;4.07;;;7.80;99.90;;;;;;5092726;28;20031;-74
2021/11/18 03:09:59;;;;;;;6.88;3.97;;;7.90;99.90;;;;;;5093669;28;20445;-73
2021/11/18 03:12:25;;;;;;;10.93;4.75;;;7.90;99.90;;;;;;5074654;28;20020;-73
2021/11/18 03:14:51;;;;;;;9.00;4.43;;;7.90;99.90;;;;;;5093290;28;20467;-73
2021/11/18 03:17:17;;;;;;;9.68;4.38;;;7.90;99.90;;;;;;5075256;28;20028;-74
2021/11/18 03:19:44;;;;;;;8.13;4.28;;;8.00;99.90;;;;;;5074587;28;20024;-74
2021/11/18 03:22:09;;;;;;;8.82;4.00;;;8.00;99.90;;;;;;5092893;28;20019;-73
2021/11/18 03:24:35;;;;;;;7.63;3.88;;;8.00;99.90;;;;;;5074366;28;20085;-74
2021/11/18 03:27:01;;;;;;;5.93;3.53;;;8.00;99.90;;;;;;5093386;28;20020;-74
2021/11/18 03:29:27;;;;;;;6.10;4.20;;;8.00;99.90;;;;;;5092653;28;20095;-74
2021/11/18 03:31:53;;;;;;;7.57;4.43;;;7.90;99.90;;;;;;5074975;28;20114;-74
2021/11/18 03:34:22;;;;;;;7.28;4.03;;;8.00;99.90;;;;;;5092880;28;20023;-74
2021/11/18 03:36:49;;;;;;;9.32;4.18;;;8.00;99.90;;;;;;5074888;28;20047;-74
2021/11/18 03:39:15;;;;;;;8.80;4.22;;;7.90;99.90;;;;;;5074831;28;20028;-74
2021/11/18 03:41:43;;;;;;;8.10;4.45;;;7.90;99.90;;;;;;5092268;28;20043;-74
2021/11/18 03:44:11;;;;;;;6.97;4.28;;;8.00;99.90;;;;;;5092909;28;20031;-74
2021/11/18 03:46:44;;;;;;;7.88;4.10;;;7.90;99.90;;;;;;5092321;28;20047;-74
2021/11/18 03:49:11;;;;;;;7.35;4.57;;;7.90;99.90;;;;;;5074786;28;20028;-74
2021/11/18 03:51:38;;;;;;;7.85;4.63;;;7.90;99.90;;;;;;5074263;28;20024;-74
2021/11/18 03:54:05;;;;;;;8.55;4.47;;;7.90;99.90;;;;;;5092878;28;20020;-74
2021/11/18 03:56:42;;;;;;;10.05;4.32;;;8.00;99.90;;;;;;5073937;28;20028;-74
2021/11/18 03:59:14;;;;;;;10.25;4.68;;;7.90;99.90;;;;;;5092997;28;20036;-74
2021/11/18 04:01:41;;;;;;;9.65;4.70;;;7.90;99.90;;;;;;5073648;28;20028;-74
2021/11/18 04:04:10;;;;;;;8.52;4.43;;;8.00;99.90;;;;;;5074717;28;20115;-74
2021/11/18 04:06:38;;;;;;;9.20;4.85;;;7.90;99.90;;;;;;5092557;28;20108;-74
2021/11/18 04:09:04;;;;;;;8.35;4.57;;;7.90;99.90;;;;;;5093140;28;20032;-73
2021/11/18 04:11:30;;;;;;;14.15;5.50;;;7.90;99.90;;;;;;5092105;28;20032;-74
2021/11/18 04:13:56;;;;;;;9.38;4.70;;;7.90;99.90;;;;;;5074589;28;20020;-73
2021/11/18 04:16:22;;;;;;;6.95;4.35;;;7.90;99.90;;;;;;5092541;28;20070;-73
2021/11/18 04:18:47;;;;;;;12.55;5.13;;;7.90;99.90;;;;;;5092565;28;20492;-73
2021/11/18 04:21:13;;;;;;;8.88;4.90;;;7.90;99.90;;;;;;5092476;28;20480;-73
2021/11/18 04:23:39;;;;;;;9.70;5.20;;;7.80;99.90;;;;;;5073779;28;20023;-73
2021/11/18 04:26:05;;;;;;;12.57;4.85;;;7.80;99.90;;;;;;5074369;28;20023;-73
2021/11/18 04:28:32;;;;;;;12.73;5.40;;;7.80;99.90;;;;;;5091960;28;20417;-74
2021/11/18 04:31:07;;;;;;;11.98;5.53;;;7.90;99.90;;;;;;5092512;28;20020;-73
2021/11/18 04:33:35;;;;;;;12.77;5.38;;;7.90;99.90;;;;;;5073799;28;20024;-74
2021/11/18 04:36:01;;;;;;;11.55;5.32;;;7.80;99.90;;;;;;5077972;28;20444;-73
2021/11/18 04:38:28;;;;;;;10.95;5.05;;;7.80;99.90;;;;;;5095847;28;20483;-74
2021/11/18 04:40:56;;;;;;;10.13;5.10;;;7.80;99.90;;;;;;5077994;28;20075;-73
2021/11/18 04:43:22;;;;;;;10.63;4.93;;;7.90;99.90;;;;;;5077936;28;20028;-74
2021/11/18 04:45:48;;;;;;;10.60;5.32;;;7.90;99.90;;;;;;5095856;28;20090;-73
2021/11/18 04:48:14;;;;;;;10.32;4.97;;;7.90;99.90;;;;;;5077899;28;20062;-73
2021/11/18 04:50:40;;;;;;;9.80;4.93;;;7.90;99.90;;;;;;5095434;28;20361;-73
2021/11/18 04:53:06;;;;;;;10.73;5.35;;;7.90;99.90;;;;;;5077512;28;20024;-73
2021/11/18 04:55:33;;;;;;;10.50;5.38;;;7.90;99.90;;;;;;5095438;28;20020;-73
2021/11/18 04:57:59;;;;;;;12.48;5.53;;;7.80;99.90;;;;;;5095381;28;20086;-73
2021/11/18 05:00:37;;;;;;;11.38;5.75;;;7.80;99.90;;;;;;5095449;28;20047;-75
2021/11/18 05:03:03;;;;;;;10.30;5.90;;;7.70;99.90;;;;;;5077637;28;20030;-74
2021/11/18 05:05:29;;;;;;;11.25;5.82;;;7.80;99.90;;;;;;5095611;28;20023;-75
2021/11/18 05:07:55;;;;;;;10.82;5.60;;;7.70;99.90;;;;;;5077370;28;20020;-74
2021/11/18 05:10:22;;;;;;;10.25;5.47;;;7.70;99.90;;;;;;5095673;28;20050;-74
2021/11/18 05:12:49;;;;;;;10.45;5.47;;;7.70;99.90;;;;;;5077075;28;20106;-74
2021/11/18 05:15:17;;;;;;;12.52;5.68;;;7.70;99.90;;;;;;5077499;28;20369;-74
2021/11/18 05:17:47;;;;;;;10.50;5.68;;;7.70;99.90;;;;;;5095102;28;20016;-74
2021/11/18 05:20:14;;;;;;;11.38;5.70;;;7.70;99.90;;;;;;5077350;28;20027;-74
2021/11/18 05:22:40;;;;;;;9.23;5.40;;;7.70;99.90;;;;;;5076782;28;20050;-74
2021/11/18 05:25:07;;;;;;;10.15;5.05;;;7.80;99.90;;;;;;5095415;28;20373;-74
2021/11/18 05:27:32;;;;;;;10.13;5.35;;;7.80;99.90;;;;;;5062741;28;20081;-74
2021/11/18 05:29:58;;;;;;;10.95;5.38;;;7.80;99.90;;;;;;5075051;28;20024;-74
2021/11/18 05:32:24;;;;;;;11.23;5.00;;;7.80;99.90;;;;;;5057188;28;20112;-74
2021/11/18 05:34:50;;;;;;;9.52;5.38;;;7.80;99.90;;;;;;5074494;28;20455;-74
2021/11/18 05:37:16;;;;;;;8.52;5.25;;;7.80;99.90;;;;;;5057013;28;20024;-74
2021/11/18 05:39:42;;;;;;;9.27;4.90;;;7.80;99.90;;;;;;5056712;28;20021;-73
2021/11/18 05:42:08;;;;;;;10.55;5.22;;;7.70;99.90;;;;;;5056910;28;20077;-73
2021/11/18 05:44:33;;;;;;;10.98;4.90;;;7.80;99.90;;;;;;5074323;28;20025;-73
2021/11/18 05:46:59;;;;;;;9.02;5.03;;;7.80;99.90;;;;;;5074719;28;20024;-73
2021/11/18 05:49:24;;;;;;;11.38;5.40;;;7.70;99.90;;;;;;5074760;28;20467;-73
2021/11/18 05:51:51;;;;;;;10.55;4.63;;;7.70;99.90;;;;;;5056323;28;20031;-73
2021/11/18 05:54:17;;;;;;;8.20;4.85;;;7.80;99.90;;;;;;5074621;28;20021;-73
2021/11/18 05:56:45;;;;;;;11.20;5.05;;;7.80;99.90;;;;;;5073750;28;20343;-73
2021/11/18 05:59:12;;;;;;;10.45;4.82;;;7.80;99.90;;;;;;5074279;28;20535;-73
2021/11/18 06:01:39;;;;;;;12.95;4.95;;;7.70;99.90;;;;;;5055686;28;20024;-73
2021/11/18 06:04:05;;;;;;;13.05;4.93;;;7.70;99.90;;;;;;5074451;28;20035;-72
2021/11/18 06:06:32;;;;;;;10.50;5.00;;;7.70;99.90;;;;;;5055836;28;20078;-73
2021/11/18 06:09:03;;;;;;;7.85;4.53;;;7.70;99.90;;;;;;5056140;28;20029;-73
2021/11/18 06:11:31;;;;;;;9.25;4.20;;;7.70;99.90;;;;;;5056205;28;20497;-73
2021/11/18 06:13:57;;;;;;;8.10;4.40;;;7.70;99.90;;;;;;5073461;28;20107;-73
2021/11/18 06:16:25;;;;;;;10.88;4.70;;;7.60;99.90;;;;;;5055935;28;20025;-73
2021/11/18 06:18:52;;;;;;;8.77;4.40;;;7.60;99.90;;;;;;5073691;28;20028;-73
2021/11/18 06:21:17;;;;;;;9.02;4.40;;;7.60;99.90;;;;;;5056414;28;20032;-73
2021/11/18 06:23:43;;;;;;;10.35;4.63;;;7.60;99.90;;;;;;5073919;28;20028;-74
2021/11/18 06:26:10;;;;;;;10.13;4.63;;;7.60;99.90;;;;;;5056171;28;20165;-74
2021/11/18 06:28:36;;;;;;;6.85;4.13;;;7.60;99.90;;;;;;5073426;28;20327;-74
2021/11/18 06:31:07;;;;;;;8.20;4.15;;;7.60;99.90;;;;;;5073877;28;20024;-74
2021/11/18 06:33:33;;;;;;;9.00;4.50;;;7.60;99.90;;;;;;5055681;28;20441;-75
2021/11/18 06:35:59;;;;;;;11.55;4.40;;;7.60;99.90;;;;;;5073758;28;20016;-74
2021/11/18 06:38:25;;;;;;;6.95;3.80;;;7.60;99.90;;;;;;5056013;28;20025;-74
2021/11/18 06:40:51;;;;;;;7.50;4.82;;;7.60;99.90;;;;;;5055536;28;20036;-74
2021/11/18 06:43:19;;;;;;;7.10;3.92;;;7.50;99.90;;;;;;5056020;28;20415;-74
2021/11/18 06:45:46;;;;;;;8.18;4.38;;;7.50;99.90;;;;;;5072946;28;20020;-74
2021/11/18 06:48:17;;;;;;;7.85;4.38;;;7.50;99.90;;;;;;5070201;28;20420;-74
2021/11/18 06:50:44;;;;;;;9.68;4.60;;;7.50;99.90;;;;;;5087063;28;20051;-74
2021/11/18 06:53:10;;;;;;;8.10;4.22;;;7.50;99.90;;;;;;5077235;28;20042;-74
2021/11/18 06:55:36;;;;;;;9.90;4.38;;;7.50;99.90;;;;;;5092625;28;20110;-73
2021/11/18 06:58:03;;;;;;;8.80;3.58;;;7.50;99.90;;;;;;5092154;28;20493;-73
2021/11/18 07:00:29;;;;;;;7.47;4.30;;;7.50;99.90;;;;;;5074697;28;20024;-73
2021/11/18 07:02:55;;;;;;;7.97;4.03;;;7.50;99.90;;;;;;5074310;28;20248;-73
2021/11/18 07:05:22;;;;;;;8.60;3.70;;;7.50;99.90;;;;;;5075179;28;20511;-73
2021/11/18 07:07:48;;;;;;;10.27;4.30;;;7.50;99.90;;;;;;5092279;28;20074;-73
2021/11/18 07:10:14;;;;;;;7.68;3.92;;;7.50;99.90;;;;;;5074515;28;20373;-73
2021/11/18 07:12:40;;;;;;;8.80;3.90;;;7.60;99.90;;;;;;5074253;28;20039;-73
2021/11/18 07:15:09;;;;;;;6.13;3.55;;;7.60;99.90;;;;;;5075034;28;20031;-74
2021/11/18 07:17:35;;;;;;;9.82;4.20;;;7.60;99.90;;;;;;5092552;28;20028;-75
2021/11/18 07:20:03;;;;;;;7.60;3.80;;;7.60;99.90;;;;;;5092405;28;20021;-74
2021/11/18 07:22:30;;;;;;;6.80;3.70;;;7.60;99.90;;;;;;5062773;28;20040;-74
2021/11/18 07:24:57;;;;;;;7.90;4.03;;;7.60;99.90;;;;;;5066537;28;20024;-73
2021/11/18 07:27:22;;;;;;;8.18;4.10;;;7.60;99.90;;;;;;5064273;28;20024;-73
2021/11/18 07:29:48;;;;;;;6.80;4.05;;;7.60;99.90;;;;;;5066883;28;20034;-74
2021/11/18 07:32:14;;;;;;;6.93;3.58;;;7.60;99.90;;;;;;5064611;28;20024;-73
2021/11/18 07:34:40;;;;;;;8.93;3.83;;;7.70;99.90;;;;;;5062495;28;20489;-73
2021/11/18 07:37:05;;;;;;;6.60;3.50;;;7.70;99.90;;;;;;5063096;28;20024;-73
2021/11/18 07:39:31;;;;;;;6.85;4.13;;;7.70;99.90;;;;;;5080221;28;20020;-74
2021/11/18 07:41:56;;;;;;;6.28;3.70;;;7.80;99.90;;;;;;5080240;28;20454;-74
2021/11/18 07:44:22;;;;;;;8.27;4.05;;;7.80;99.90;;;;;;5063457;28;20020;-74
2021/11/18 07:46:48;;;;;;;8.35;4.40;;;7.80;99.90;;;;;;5081889;28;20028;-73
2021/11/18 07:49:15;;;;;;;5.35;3.38;;;7.80;99.90;;;;;;5065601;28;20020;-74
2021/11/18 07:51:41;;;;;;;7.13;3.80;;;7.90;99.90;;;;;;5074229;28;20480;-74
2021/11/18 07:54:09;;;;;;;7.32;4.20;;;7.90;99.90;;;;;;5092941;28;20056;-74
2021/11/18 07:56:37;;;;;;;7.00;3.85;;;7.90;99.90;;;;;;5074470;28;20061;-75
2021/11/18 07:59:04;;;;;;;6.13;3.58;;;7.90;99.90;;;;;;5086089;28;20032;-75
2021/11/18 08:01:30;;;;;;;6.88;4.00;;;8.00;99.90;;;;;;5085155;28;20581;-75
2021/11/18 08:03:56;;;;;;;6.50;3.90;;;8.00;99.90;;;;;;5062481;28;20020;-75
2021/11/18 08:06:26;;;;;;;8.57;4.72;;;8.00;99.90;;;;;;5081960;28;20028;-74
2021/11/18 08:08:54;;;;;;;8.48;3.80;;;8.00;99.90;;;;;;5082910;28;20055;-75
2021/11/18 08:11:27;;;;;;;5.90;3.53;;;8.00;99.90;;;;;;5089865;28;20020;-75
2021/11/18 08:13:53;;;;;;;7.88;4.13;;;8.00;99.90;;;;;;5085194;28;20024;-76
2021/11/18 08:16:19;;;;;;;8.95;3.90;;;8.00;99.90;;;;;;5090654;28;20093;-76
2021/11/18 08:18:45;;;;;;;9.05;3.63;;;8.00;99.90;;;;;;5071982;28;20031;-74
2021/11/18 08:21:12;;;;;;;7.70;4.35;;;8.10;99.90;;;;;;5072760;28;20391;-75
2021/11/18 08:23:39;;;;;;;8.52;4.28;;;8.10;99.90;;;;;;5068713;28;20063;-74
2021/11/18 08:26:08;;;;;;;9.05;3.97;;;8.10;99.90;;;;;;5065316;28;20032;-73
2021/11/18 08:28:35;;;;;;;8.60;3.80;;;8.20;99.90;;;;;;5070676;28;20020;-83
2021/11/18 08:31:01;;;;;;;9.93;4.13;;;8.20;99.90;;;;;;5066681;28;20553;-76
2021/11/18 08:33:27;;;;;;;9.50;4.30;;;8.20;99.90;;;;;;5076978;28;20077;-75
2021/11/18 08:35:53;;;;;;;7.50;4.32;;;8.30;99.90;;;;;;5094955;28;20024;-75
2021/11/18 08:38:20;;;;;;;10.98;4.22;;;8.30;99.90;;;;;;5095929;28;20031;-74
2021/11/18 08:40:56;;;;;;;8.43;4.30;;;8.30;99.90;;;;;;5076740;28;20023;-75
2021/11/18 08:43:23;;;;;;;10.45;4.40;;;8.30;99.90;;;;;;5095108;28;20019;-75
2021/11/18 08:45:50;;;;;;;10.85;4.65;;;8.40;99.90;;;;;;5074126;28;20081;-75
2021/11/18 08:48:17;;;;;;;8.40;4.47;;;8.40;99.90;;;;;;5095509;28;20055;-73
2021/11/18 08:50:50;;;;;;;10.70;4.93;;;8.40;99.90;;;;;;5072116;28;20471;-76
2021/11/18 08:53:18;;;;;;;8.75;4.32;;;8.40;99.90;;;;;;5062798;28;20074;-75
2021/11/18 08:55:45;;;;;;;8.90;4.25;;;8.40;99.90;;;;;;5066939;28;20024;-75
2021/11/18 08:58:16;;;;;;;8.77;4.70;;;8.50;99.90;;;;;;5074011;28;20134;-76
2021/11/18 09:00:51;;;;;;;8.60;4.57;;;8.50;99.90;;;;;;5073501;28;20028;-77
2021/11/18 09:03:20;;;;;;;9.30;4.80;;;8.60;99.90;;;;;;5073985;28;20479;-76
2021/11/18 09:05:47;;;;;;;9.02;4.45;;;8.60;99.90;;;;;;5073745;28;20027;-76
2021/11/18 09:08:13;;;;;;;8.80;4.00;;;8.60;99.90;;;;;;5092125;28;20039;-76
2021/11/18 09:10:38;;;;;;;10.57;4.60;;;8.60;99.90;;;;;;5073293;28;20028;-76
2021/11/18 09:13:06;;;;;;;12.30;5.47;;;8.60;99.90;;;;;;5091817;28;20073;-77
2021/11/18 09:15:33;;;;;;;11.00;5.03;;;8.70;99.90;;;;;;5073364;28;20107;-76
2021/11/18 09:17:59;;;;;;;9.35;4.78;;;8.70;99.90;;;;;;5088949;28;20027;-76
2021/11/18 09:20:26;;;;;;;8.50;4.38;;;8.70;99.90;;;;;;5091514;28;20432;-76
2021/11/18 09:22:57;;;;;;;10.15;4.40;;;8.70;99.90;;;;;;5073485;28;20435;-77
2021/11/18 09:25:30;;;;;;;8.50;4.43;;;8.80;99.90;;;;;;5074229;28;20031;-76
2021/11/18 09:27:57;;;;;;;8.27;4.43;;;8.90;99.90;;;;;;5074059;28;20268;-75
2021/11/18 09:30:33;;;;;;;9.45;4.20;;;8.90;99.90;;;;;;5092326;28;20016;-79
2021/11/18 09:32:59;;;;;;;12.30;4.38;;;8.90;99.90;;;;;;5075134;28;20465;-78
2021/11/18 09:35:33;;;;;;;9.43;4.50;;;9.00;99.90;;;;;;5073677;28;20096;-76
2021/11/18 09:38:01;;;;;;;8.18;4.13;;;8.90;99.90;;;;;;5072691;28;20020;-75
2021/11/18 09:40:33;;;;;;;8.95;4.60;;;9.00;99.90;;;;;;5091924;28;20039;-75
2021/11/18 09:43:07;;;;;;;8.25;3.97;;;9.00;99.90;;;;;;5072873;28;20039;-75
2021/11/18 09:45:51;;;;;;;9.05;4.53;;;9.00;99.90;;;;;;5091895;28;20039;-75
2021/11/18 09:48:32;;;;;;;9.60;4.07;;;9.10;99.90;;;;;;5091503;28;20104;-78
2021/11/18 09:51:36;;;;;;;7.80;4.18;;;9.10;99.90;;;;;;5071264;28;20028;-78
2021/11/18 09:54:05;;;;;;;9.52;4.20;;;9.20;99.90;;;;;;5066295;28;20028;-78
2021/11/18 09:56:40;;;;;;;8.00;4.07;;;9.30;99.90;;;;;;5067748;28;20081;-79
2021/11/18 09:59:37;;;;;;;7.20;4.32;;;9.40;99.70;;;;;;5074900;28;20048;-79
2021/11/18 10:02:05;;;;;;;6.93;3.75;;;9.40;99.60;;;;;;5060910;28;20035;-78
2021/11/18 10:04:40;;;;;;;11.52;5.07;;;9.50;99.60;;;;;;5074497;28;20032;-78
2021/11/18 10:07:24;;;;;;;9.55;4.32;;;9.60;99.30;;;;;;5073885;28;20032;-78
2021/11/18 10:10:18;;;;;;;8.45;4.38;;;9.60;99.10;;;;;;5074088;28;20115;-78
2021/11/18 10:13:12;;;;;;;8.68;4.30;;;9.60;99.30;;;;;;5074043;28;20020;-78
2021/11/18 10:15:46;;;;;;;8.27;4.40;;;9.60;99.00;;;;;;5076681;28;20024;-77
2021/11/18 10:18:19;;;;;;;10.10;4.40;;;9.70;99.30;;;;;;5091454;28;20036;-78
2021/11/18 10:20:48;;;;;;;7.55;4.63;;;9.60;98.90;;;;;;5071750;28;20085;-77
2021/11/18 10:23:22;;;;;;;9.05;4.20;;;9.60;99.00;;;;;;5061833;28;20036;-78
2021/11/18 10:26:11;;;;;;;9.35;4.20;;;9.60;99.10;;;;;;5070819;28;20028;-75
2021/11/18 10:29:14;;;;;;;8.90;3.70;;;9.50;99.00;;;;;;5070069;28;20028;-76
2021/11/18 10:31:52;;;;;;;6.93;3.90;;;9.60;99.30;;;;;;5040567;28;20118;-75
2021/11/18 10:34:45;;;;;;;5.47;3.55;;;9.60;99.10;;;;;;5082523;28;20024;-75
2021/11/18 10:37:31;;;;;;;10.20;4.45;;;9.60;99.10;;;;;;5069608;28;20083;-78
2021/11/18 10:40:00;;;;;;;8.15;4.30;;;9.60;98.90;;;;;;5090742;28;20737;-77
2021/11/18 10:42:40;;;;;;;6.97;3.90;;;9.60;98.90;;;;;;5069199;28;20032;-78
2021/11/18 10:45:29;;;;;;;9.57;4.65;;;9.60;99.10;;;;;;5070197;28;20028;-75
2021/11/18 10:48:04;;;;;;;8.77;4.10;;;9.70;98.80;;;;;;5070361;28;20032;-76
2021/11/18 10:50:49;;;;;;;8.73;4.20;;;9.70;98.70;;;;;;5064974;28;20078;-77
2021/11/18 10:53:26;;;;;;;10.00;4.20;;;9.70;98.80;;;;;;5089259;28;20552;-78
2021/11/18 10:56:07;;;;;;;6.28;3.53;;;9.60;98.90;;;;;;5090169;28;20824;-75
2021/11/18 10:58:46;;;;;;;7.40;4.28;;;9.70;98.80;;;;;;5068324;28;20052;-77
2021/11/18 11:01:27;;;;;;;12.48;4.82;;;9.70;98.70;;;;;;5068261;28;20037;-77
2021/11/18 11:03:56;;;;;;;6.97;4.38;;;9.70;98.60;;;;;;5069676;28;20029;-76
2021/11/18 11:06:23;;;;;;;7.50;4.30;;;9.70;98.60;;;;;;5066815;28;20029;-78
2021/11/18 11:08:52;;;;;;;9.13;4.43;;;9.60;98.30;;;;;;5064645;28;20024;-76
2021/11/18 11:11:47;;;;;;;10.55;4.15;;;9.70;98.10;;;;;;5068128;28;20029;-77
2021/11/18 11:14:24;;;;;;;8.00;4.70;;;9.70;98.20;;;;;;5065240;28;20034;-77
2021/11/18 11:17:14;;;;;;;12.27;4.78;;;9.70;98.30;;;;;;5068621;28;20051;-76
2021/11/18 11:19:52;;;;;;;12.32;4.70;;;9.80;98.40;;;;;;5069999;28;20037;-78
2021/11/18 11:23:01;;;;;;;8.55;3.97;;;9.80;98.00;;;;;;5063878;28;20154;-78
2021/11/18 11:25:54;;;;;;;9.45;4.28;;;9.80;98.10;;;;;;5069065;28;20047;-77
2021/11/18 11:28:56;;;;;;;9.15;4.20;;;9.80;98.00;;;;;;5069499;28;20090;-78
2021/11/18 11:31:41;;;;;;;7.18;3.67;;;9.80;98.10;;;;;;5067355;28;20349;-76
2021/11/18 11:34:15;;;;;;;10.10;4.30;;;9.80;98.30;;;;;;5066304;28;20051;-76
2021/11/18 11:36:48;;;;;;;8.05;4.28;;;9.80;98.10;;;;;;5066907;28;20108;-76
2021/11/18 11:39:18;;;;;;;9.13;4.32;;;9.90;98.00;;;;;;5066946;28;20485;-78
2021/11/18 11:42:08;;;;;;;9.85;4.50;;;9.90;97.80;;;;;;5070241;28;20040;-78
2021/11/18 11:45:04;;;;;;;8.63;3.90;;;9.80;98.10;;;;;;5058953;28;20024;-75
2021/11/18 11:47:44;;;;;;;8.75;4.00;;;9.80;97.80;;;;;;5069151;28;20093;-74
2021/11/18 11:50:43;;;;;;;10.95;4.03;;;9.70;98.00;;;;;;5067260;28;20024;-75
2021/11/18 11:53:38;;;;;;;7.40;3.90;;;9.80;97.90;;;;;;5067070;28;20079;-74
2021/11/18 11:56:28;;;;;;;7.43;3.70;;;9.80;97.80;;;;;;5066497;28;20033;-75
2021/11/18 11:59:03;;;;;;;11.90;5.13;;;9.80;97.80;;;;;;5059138;28;20585;-74
2021/11/18 12:01:47;;;;;;;10.07;4.75;;;9.80;97.60;;;;;;5060010;28;20059;-75
2021/11/18 12:04:24;;;;;;;13.85;5.40;;;9.80;97.40;;;;;;5061483;28;20040;-75
2021/11/18 12:07:02;;;;;;;7.63;4.25;;;9.80;97.50;;;;;;5059975;28;20252;-75
2021/11/18 12:09:46;;;;;;;8.82;4.30;;;9.90;97.60;;;;;;5067286;28;20044;-74
2021/11/18 12:12:27;;;;;;;11.57;3.92;;;9.90;97.90;;;;;;5069827;28;20028;-75
2021/11/18 12:14:52;;;;;;;9.05;4.72;;;9.90;97.90;;;;;;5059156;28;20063;-75
2021/11/18 12:17:37;;;;;;;9.18;4.00;;;9.90;98.10;;;;;;5058539;28;20071;-73
2021/11/18 12:20:03;;;;;;;8.57;4.28;;;9.80;98.00;;;;;;5066993;28;20639;-73
2021/11/18 12:22:29;;;;;;;10.13;4.60;;;9.80;98.10;;;;;;5049800;28;20031;-73
2021/11/18 12:25:19;;;;;;;9.32;4.05;;;9.80;98.20;;;;;;5063341;28;20028;-73
2021/11/18 12:28:13;;;;;;;9.07;4.30;;;9.80;98.20;;;;;;5063804;28;20086;-73
2021/11/18 12:30:45;;;;;;;8.70;4.28;;;9.80;98.10;;;;;;5055034;28;20373;-73
2021/11/18 12:33:46;;;;;;;7.97;4.25;;;9.80;98.10;;;;;;5064721;28;20056;-74
2021/11/18 12:36:21;;;;;;;8.63;4.13;;;9.80;98.40;;;;;;5064923;28;20068;-74
2021/11/18 12:39:08;;;;;;;10.88;4.50;;;9.80;98.30;;;;;;5055568;28;20032;-76
2021/11/18 12:41:43;;;;;;;11.23;4.72;;;9.80;98.10;;;;;;5058188;28;20089;-76
2021/11/18 12:44:36;;;;;;;7.95;4.82;;;9.80;98.00;;;;;;5058080;28;20082;-76
2021/11/18 12:47:11;;;;;;;9.80;3.97;;;9.80;98.20;;;;;;5060979;28;20030;-75
2021/11/18 12:49:55;;;;;;;9.02;4.57;;;9.80;98.30;;;;;;5052583;28;20040;-76
2021/11/18 12:52:31;;;;;;;8.65;4.57;;;9.80;98.20;;;;;;5050474;28;20037;-74
2021/11/18 12:55:13;;;;;;;8.48;4.72;;;9.80;98.10;;;;;;5060300;28;20084;-75
2021/11/18 12:57:48;;;;;;;9.10;5.30;;;9.80;98.10;;;;;;5066558;28;20051;-75
2021/11/18 13:00:14;;;;;;;11.93;4.93;;;9.80;98.20;;;;;;5071445;28;20024;-74
2021/11/18 13:02:41;;;;;;;11.43;4.97;;;9.80;98.10;;;;;;5069943;28;20386;-74
2021/11/18 13:05:13;;;;;;;11.80;5.47;;;9.80;98.10;;;;;;5067313;28;20043;-73
2021/11/18 13:07:44;;;;;;;11.57;5.32;;;9.80;98.10;;;;;;5068987;28;20374;-74
2021/11/18 13:10:19;;;;;;;6.68;3.67;;;9.80;98.20;;;;;;5069696;28;20427;-75
2021/11/18 13:13:08;;;;;;;9.43;5.22;;;9.80;98.20;;;;;;5068209;28;20081;-74